Time;durP1;ratioP1;P1;durP2;ratioP2;P2;SDS_P1;SDS_P2;PMS_P1;PMS_P2;Temp;Humidity;BMP_temperature;BMP_pressure;BME280_temperature;BME280_humidity;BME280_pressure;Samples;Min_cycle;Max_cycle;Signal;HPM_P1;HPM_P2
2023/12/13 00:02:22;;;;;;;36.60;25.00;;;;;;;4.14;98.88;99619.50;108611;282;153859;-71
2023/12/13 00:04:56;;;;;;;38.00;26.40;;;;;;;4.13;98.90;99613.47;108564;283;38349;-71
2023/12/13 00:07:30;;;;;;;36.50;25.00;;;;;;;4.13;98.79;99614.69;108512;282;155991;-72
2023/12/13 00:10:04;;;;;;;39.30;26.30;;;;;;;4.13;99.03;99612.24;108812;282;38490;-71
2023/12/13 00:12:38;;;;;;;37.90;25.70;;;;;;;4.16;99.20;99612.55;108643;282;38504;-70
2023/12/13 00:15:15;;;;;;;36.50;26.20;;;;;;;4.14;98.86;99615.86;108494;282;154525;-70
2023/12/13 00:17:49;;;;;;;40.80;27.50;;;;;;;4.10;98.83;99617.34;108599;284;39408;-71
2023/12/13 00:20:23;;;;;;;37.20;25.50;;;;;;;4.08;98.98;99614.96;108570;282;153793;-70
2023/12/13 00:22:57;;;;;;;36.20;24.90;;;;;;;4.07;98.75;99612.41;108812;282;40177;-70
2023/12/13 00:25:32;;;;;;;35.80;24.10;;;;;;;4.02;98.40;99610.80;108570;282;154698;-69
2023/12/13 00:28:07;;;;;;;34.20;23.80;;;;;;;3.98;98.35;99610.71;108603;283;38821;-70
2023/12/13 00:30:41;;;;;;;32.30;23.50;;;;;;;3.92;98.03;99610.34;108572;284;39405;-72
2023/12/13 00:33:15;;;;;;;33.10;24.20;;;;;;;3.87;98.09;99607.86;108538;283;153917;-71
2023/12/13 00:35:49;;;;;;;35.10;24.60;;;;;;;3.85;98.37;99606.37;108734;282;38082;-70
2023/12/13 00:38:24;;;;;;;34.70;24.30;;;;;;;3.82;98.25;99609.02;108609;282;154558;-74
2023/12/13 00:40:58;;;;;;;31.50;22.00;;;;;;;3.78;98.39;99603.93;108573;283;38278;-71
2023/12/13 00:43:32;;;;;;;33.80;23.10;;;;;;;3.78;98.32;99607.23;108437;283;154538;-70
2023/12/13 00:46:14;;;;;;;31.80;24.20;;;;;;;3.77;98.49;99609.30;108710;282;39541;-70
2023/12/13 00:48:48;;;;;;;30.70;22.60;;;;;;;3.76;98.54;99614.66;108709;282;38585;-73
2023/12/13 00:51:24;;;;;;;32.80;23.50;;;;;;;3.76;98.67;99609.33;108545;282;153688;-71
2023/12/13 00:53:58;;;;;;;32.70;22.60;;;;;;;3.76;98.69;99606.58;108678;276;41530;-71
2023/12/13 00:56:36;;;;;;;32.20;23.10;;;;;;;3.79;98.98;99607.70;108505;283;154260;-71
2023/12/13 00:59:10;;;;;;;35.50;24.10;;;;;;;3.82;99.06;99606.59;108607;283;38348;-70
2023/12/13 01:01:48;;;;;;;43.80;28.70;;;;;;;3.85;99.12;99607.40;108718;282;37965;-72
2023/12/13 01:04:22;;;;;;;39.90;27.30;;;;;;;3.84;98.79;99608.29;108709;275;38191;-70
2023/12/13 01:06:56;;;;;;;39.80;26.70;;;;;;;3.82;99.05;99609.00;108770;282;39605;-70
2023/12/13 01:09:30;;;;;;;38.90;26.00;;;;;;;3.83;99.11;99605.72;108601;282;154293;-70
2023/12/13 01:12:07;;;;;;;64.90;37.80;;;;;;;3.86;99.34;99600.30;108766;282;38591;-71
2023/12/13 01:14:41;;;;;;;46.80;30.80;;;;;;;3.89;99.06;99601.98;108592;282;154256;-73
2023/12/13 01:17:16;;;;;;;44.80;30.30;;;;;;;3.89;99.04;99600.23;108597;283;38511;-71
2023/12/13 01:19:52;;;;;;;43.40;29.50;;;;;;;3.89;98.92;99596.96;108440;283;153564;-72
2023/12/13 01:22:25;;;;;;;46.90;30.00;;;;;;;3.89;99.09;99595.59;108651;283;38461;-72
2023/12/13 01:24:59;;;;;;;42.40;28.60;;;;;;;3.88;99.02;99595.08;108619;284;39285;-71
2023/12/13 01:27:33;;;;;;;40.00;25.60;;;;;;;3.87;99.11;99593.20;108639;282;154999;-73
2023/12/13 01:30:10;;;;;;;31.80;23.00;;;;;;;3.86;99.07;99587.86;108823;282;38260;-71
2023/12/13 01:32:46;;;;;;;34.00;24.90;;;;;;;3.85;98.81;99586.16;108666;282;177641;-70
2023/12/13 01:35:21;;;;;;;36.20;24.60;;;;;;;3.83;98.79;99581.55;108828;282;39393;-72
2023/12/13 01:37:54;;;;;;;39.10;26.90;;;;;;;3.84;98.96;99575.33;108677;282;153534;-68
2023/12/13 01:40:28;;;;;;;40.20;27.40;;;;;;;3.84;99.02;99575.67;108625;283;38244;-69
2023/12/13 01:43:02;;;;;;;45.20;30.30;;;;;;;3.83;99.03;99578.11;108661;283;38417;-70
2023/12/13 01:45:36;;;;;;;34.00;23.90;;;;;;;3.85;99.31;99574.11;108669;282;155484;-70
2023/12/13 01:48:11;;;;;;;33.80;23.80;;;;;;;3.88;99.22;99572.46;108866;282;39126;-69
2023/12/13 01:50:45;;;;;;;34.60;24.20;;;;;;;3.86;98.91;99565.79;108530;283;153992;-69
2023/12/13 01:53:19;;;;;;;40.60;25.50;;;;;;;3.84;98.97;99568.94;108697;282;39436;-71
2023/12/13 01:55:54;;;;;;;39.70;27.30;;;;;;;3.86;99.16;99571.32;108575;282;153850;-73
2023/12/13 01:58:28;;;;;;;37.80;25.40;;;;;;;3.86;99.10;99565.80;108065;282;910220;-72
2023/12/13 02:01:05;;;;;;;36.70;25.10;;;;;;;3.84;99.03;99561.70;108706;282;38184;-71
2023/12/13 02:03:39;;;;;;;35.20;24.40;;;;;;;3.86;99.44;99564.07;108564;282;154061;-70
2023/12/13 02:06:13;;;;;;;36.40;24.30;;;;;;;3.88;99.17;99560.41;108591;283;39327;-70
2023/12/13 02:08:48;;;;;;;33.70;23.70;;;;;;;3.84;98.71;99558.93;108531;282;153877;-70
2023/12/13 02:11:22;;;;;;;39.00;27.70;;;;;;;3.80;98.67;99556.45;108767;282;39464;-71
2023/12/13 02:13:56;;;;;;;36.80;25.30;;;;;;;3.77;98.74;99552.55;108717;282;153716;-72
2023/12/13 02:16:29;;;;;;;36.40;25.10;;;;;;;3.74;98.85;99552.81;108823;282;39490;-69
2023/12/13 02:19:04;;;;;;;41.30;27.70;;;;;;;3.72;98.89;99553.70;108835;275;38172;-74
2023/12/13 02:21:38;;;;;;;38.00;25.80;;;;;;;3.70;99.05;99552.72;108581;282;154003;-71
2023/12/13 02:24:12;;;;;;;35.40;25.30;;;;;;;3.73;99.18;99551.25;108629;283;38598;-70
2023/12/13 02:26:51;;;;;;;35.10;24.30;;;;;;;3.74;99.02;99544.88;108515;282;154541;-70
2023/12/13 02:29:25;;;;;;;38.70;26.40;;;;;;;3.73;99.09;99533.16;108789;282;39734;-70
2023/12/13 02:35:09;;;;;;;39.40;27.10;;;;;;;3.67;98.85;99539.33;108818;281;38389;-70
2023/12/13 02:37:48;;;;;;;39.40;24.00;;;;;;;3.58;98.55;99539.01;108594;282;154267;-71
2023/12/13 02:40:23;;;;;;;35.10;23.30;;;;;;;3.56;98.79;99537.34;108797;282;39644;-73
2023/12/13 02:42:57;;;;;;;35.60;25.20;;;;;;;3.58;98.90;99535.74;108730;282;38628;-71
2023/12/13 02:49:16;;;;;;;40.90;27.30;;;;;;;3.50;99.00;99530.58;108793;280;39679;-70
2023/12/13 02:51:51;;;;;;;36.80;24.50;;;;;;;3.49;99.31;99525.77;108691;282;153691;-71
2023/12/13 02:54:25;;;;;;;34.50;24.50;;;;;;;3.48;99.08;99522.17;108709;282;38211;-72
2023/12/13 02:56:59;;;;;;;32.30;22.60;;;;;;;3.45;98.81;99517.07;108636;282;154057;-71
2023/12/13 02:59:33;;;;;;;35.80;24.30;;;;;;;3.46;98.90;99514.48;108750;282;38766;-69
2023/12/13 03:02:07;;;;;;;34.10;24.50;;;;;;;3.47;99.07;99514.26;108599;282;153890;-69
2023/12/13 03:04:41;;;;;;;36.40;25.20;;;;;;;3.45;98.83;99514.50;108760;282;38597;-72
2023/12/13 03:07:16;;;;;;;34.40;24.10;;;;;;;3.42;98.99;99511.29;108738;282;39071;-72
2023/12/13 03:09:50;;;;;;;30.10;20.90;;;;;;;3.42;99.15;99511.63;108693;282;154061;-72
2023/12/13 03:12:24;;;;;;;31.60;22.20;;;;;;;3.44;99.12;99506.76;108746;282;38492;-73
2023/12/13 03:14:58;;;;;;;33.40;22.40;;;;;;;3.45;98.84;99510.19;108520;282;154507;-71
2023/12/13 03:17:32;;;;;;;32.50;23.80;;;;;;;3.41;98.43;99512.67;108713;282;38168;-71
2023/12/13 03:20:08;;;;;;;34.90;22.70;;;;;;;3.38;98.58;99513.27;108601;282;153360;-70
2023/12/13 03:22:42;;;;;;;32.50;22.90;;;;;;;3.36;98.71;99512.78;108710;282;175885;-71
2023/12/13 03:25:16;;;;;;;31.90;23.30;;;;;;;3.35;98.58;99511.60;108735;282;39640;-71
2023/12/13 03:27:51;;;;;;;32.80;23.00;;;;;;;3.35;98.62;99509.02;108693;282;154708;-69
2023/12/13 03:30:25;;;;;;;34.30;24.20;;;;;;;3.35;98.56;99502.64;108823;282;39394;-70
2023/12/13 03:33:03;;;;;;;34.40;24.10;;;;;;;3.36;98.75;99504.16;108641;282;153575;-71
2023/12/13 03:35:37;;;;;;;36.40;25.30;;;;;;;3.36;98.51;99510.54;108768;282;38401;-71
2023/12/13 03:38:12;;;;;;;34.30;23.70;;;;;;;3.30;98.44;99511.36;108352;282;175869;-69
2023/12/13 03:40:46;;;;;;;31.60;22.30;;;;;;;3.26;98.35;99510.09;108730;282;38468;-72
2023/12/13 03:43:20;;;;;;;32.00;23.00;;;;;;;3.26;98.57;99504.05;108709;282;39686;-70
2023/12/13 03:45:54;;;;;;;32.80;22.80;;;;;;;3.27;98.57;99500.74;108590;282;154086;-72
2023/12/13 03:48:28;;;;;;;34.00;23.30;;;;;;;3.26;98.32;99495.95;108699;282;38830;-72
2023/12/13 03:51:05;;;;;;;34.10;22.30;;;;;;;3.21;98.23;99490.71;108654;282;153374;-70
2023/12/13 03:53:42;;;;;;;34.60;23.10;;;;;;;3.19;98.53;99496.98;108725;282;39830;-71
2023/12/13 03:56:16;;;;;;;35.40;23.90;;;;;;;3.16;98.60;99493.08;108679;282;155551;-70
2023/12/13 03:58:50;;;;;;;31.10;22.90;;;;;;;3.17;98.92;99493.91;108617;282;175846;-71
2023/12/13 04:01:25;;;;;;;31.50;23.10;;;;;;;3.21;99.07;99496.08;108697;282;40218;-73
2023/12/13 04:03:59;;;;;;;34.20;24.90;;;;;;;3.25;99.20;99497.02;108594;282;38816;-71
2023/12/13 04:06:33;;;;;;;31.60;23.60;;;;;;;3.27;99.24;99496.80;108612;282;39531;-71
2023/12/13 04:09:06;;;;;;;33.50;23.30;;;;;;;3.28;99.24;99495.39;108651;282;154438;-71
2023/12/13 04:11:41;;;;;;;34.20;23.10;;;;;;;3.27;99.22;99500.42;108765;282;38397;-71
2023/12/13 04:14:18;;;;;;;32.20;22.90;;;;;;;3.28;99.47;99498.14;108670;282;154187;-71
2023/12/13 04:16:51;;;;;;;34.50;24.00;;;;;;;3.34;99.93;99499.73;108778;282;39047;-72
2023/12/13 04:19:25;;;;;;;35.80;25.50;;;;;;;3.41;100.00;99501.48;108729;282;40281;-72
2023/12/13 04:22:02;;;;;;;36.20;26.10;;;;;;;3.50;100.00;99500.58;108612;282;39654;-71
2023/12/13 04:24:36;;;;;;;38.80;26.40;;;;;;;3.57;100.00;99499.73;108769;282;39633;-71
2023/12/13 04:27:11;;;;;;;39.80;25.80;;;;;;;3.60;100.00;99503.62;108624;282;153883;-70
2023/12/13 04:29:45;;;;;;;35.10;23.10;;;;;;;3.62;100.00;99505.27;108743;282;38713;-70
2023/12/13 04:32:20;;;;;;;36.70;24.70;;;;;;;3.63;100.00;99499.92;108592;282;155580;-70
2023/12/13 04:34:54;;;;;;;40.40;25.30;;;;;;;3.66;100.00;99501.41;108725;282;38227;-70
2023/12/13 04:37:29;;;;;;;32.80;22.80;;;;;;;3.69;100.00;99500.66;108739;282;39899;-72
2023/12/13 04:40:11;;;;;;;33.50;23.30;;;;;;;3.70;100.00;99504.44;108556;282;39609;-72
2023/12/13 04:42:48;;;;;;;35.40;23.30;;;;;;;3.73;100.00;99504.70;108567;284;38161;-71
2023/12/13 04:45:22;;;;;;;40.90;27.40;;;;;;;3.74;100.00;99500.35;108434;283;155080;-70
2023/12/13 04:47:56;;;;;;;44.40;28.80;;;;;;;3.75;100.00;99503.27;108606;283;38282;-69
2023/12/13 04:50:30;;;;;;;41.00;26.70;;;;;;;3.81;100.00;99500.02;108512;283;155516;-71
2023/12/13 04:53:05;;;;;;;38.20;26.00;;;;;;;3.88;100.00;99500.87;108585;283;38927;-70
2023/12/13 04:55:39;;;;;;;41.20;27.20;;;;;;;3.95;100.00;99502.27;104861;280;5004917;-70
2023/12/13 05:01:37;;;;;;;65.00;41.70;;;;;;;4.08;100.00;99496.73;108609;282;154245;-69
2023/12/13 05:04:11;;;;;;;62.60;38.40;;;;;;;4.11;100.00;99496.32;108808;282;39384;-69
2023/12/13 05:06:45;;;;;;;53.20;32.60;;;;;;;4.13;100.00;99495.06;108741;282;39751;-71
2023/12/13 05:12:34;;;;;;;44.40;27.70;;;;;;;4.09;100.00;99490.15;108781;280;38707;-71
2023/12/13 05:15:10;;;;;;;48.20;31.30;;;;;;;4.10;100.00;99488.77;108563;282;154661;-70
2023/12/13 05:17:44;;;;;;;53.30;31.80;;;;;;;4.14;100.00;99482.09;108736;282;39920;-70
2023/12/13 05:20:18;;;;;;;59.70;35.50;;;;;;;4.21;100.00;99477.95;108592;282;153810;-72
2023/12/13 05:22:52;;;;;;;69.10;37.50;;;;;;;4.25;100.00;99483.90;108724;282;38773;-73
2023/12/13 05:25:32;;;;;;;54.90;30.60;;;;;;;4.28;100.00;99484.83;108780;282;38449;-73
2023/12/13 05:28:08;;;;;;;94.30;49.90;;;;;;;4.32;100.00;99487.84;108617;280;39134;-71
2023/12/13 05:30:45;;;;;;;115.50;61.00;;;;;;;4.31;100.00;99485.27;108659;283;39385;-71
2023/12/13 05:36:47;;;;;;;76.20;42.40;;;;;;;4.33;100.00;99476.23;110158;280;38411;-72
2023/12/13 05:39:21;;;;;;;90.20;47.90;;;;;;;4.31;100.00;99478.53;110028;283;154815;-72
2023/12/13 05:41:56;;;;;;;92.60;45.20;;;;;;;4.32;100.00;99480.91;110169;283;39688;-72
2023/12/13 05:44:31;;;;;;;95.90;50.00;;;;;;;4.35;100.00;99475.66;110045;283;154325;-72
2023/12/13 05:47:05;;;;;;;75.70;39.70;;;;;;;4.40;100.00;99475.52;110210;283;39181;-72
2023/12/13 05:49:45;;;;;;;75.50;41.00;;;;;;;4.47;100.00;99468.96;110122;283;175099;-72
2023/12/13 05:52:19;;;;;;;75.20;39.60;;;;;;;4.50;100.00;99464.92;110148;276;40012;-72
2023/12/13 05:54:53;;;;;;;74.70;40.20;;;;;;;4.48;99.90;99460.11;110168;284;38282;-72
2023/12/13 05:57:27;;;;;;;71.50;37.20;;;;;;;4.49;99.76;99459.75;110044;284;153968;-72
2023/12/13 06:00:01;;;;;;;73.60;38.30;;;;;;;4.45;99.22;99458.30;110278;283;38178;-73
2023/12/13 06:02:36;;;;;;;77.80;37.70;;;;;;;4.46;99.59;99458.27;110017;283;154394;-73
2023/12/13 06:08:33;;;;;;;90.10;44.20;;;;;;;4.53;99.40;99458.09;110180;280;38215;-72
2023/12/13 06:14:38;;;;;;;59.70;31.60;;;;;;;4.51;99.38;99452.45;110072;280;154484;-72
2023/12/13 06:17:12;;;;;;;72.90;33.60;;;;;;;4.53;99.54;99451.70;110371;282;38275;-72
2023/12/13 06:19:46;;;;;;;92.40;41.00;;;;;;;4.56;99.19;99450.39;110452;282;39371;-72
2023/12/13 06:22:20;;;;;;;77.20;36.90;;;;;;;4.54;99.12;99451.14;110208;282;39638;-72
2023/12/13 06:24:54;;;;;;;79.70;37.20;;;;;;;4.55;99.24;99447.30;110341;281;38520;-72
2023/12/13 06:27:31;;;;;;;73.90;35.20;;;;;;;4.53;99.07;99441.84;110160;282;153744;-72
2023/12/13 06:30:10;;;;;;;80.70;39.10;;;;;;;4.52;98.91;99445.34;110311;282;38537;-72
2023/12/13 06:32:44;;;;;;;63.10;31.10;;;;;;;4.47;98.68;99441.48;110166;282;154312;-72
2023/12/13 06:35:18;;;;;;;58.60;30.70;;;;;;;4.41;98.60;99442.35;110321;282;38456;-72
2023/12/13 06:37:52;;;;;;;65.30;34.30;;;;;;;4.43;98.81;99447.13;110321;282;38268;-73
2023/12/13 06:40:26;;;;;;;68.20;33.40;;;;;;;4.37;98.35;99444.00;110200;282;38371;-72
2023/12/13 06:43:00;;;;;;;63.70;32.00;;;;;;;4.33;98.70;99447.41;110407;282;38264;-72
2023/12/13 06:45:34;;;;;;;62.30;32.30;;;;;;;4.36;99.25;99444.57;110226;282;155069;-72
2023/12/13 06:48:08;;;;;;;63.90;29.20;;;;;;;4.41;99.43;99442.50;110355;281;39327;-72
2023/12/13 06:50:42;;;;;;;64.50;33.80;;;;;;;4.47;99.57;99443.22;110177;281;155542;-72
2023/12/13 06:53:17;;;;;;;59.80;30.80;;;;;;;4.52;99.30;99442.21;110375;281;38274;-72
2023/12/13 06:55:51;;;;;;;63.70;32.50;;;;;;;4.52;99.21;99444.80;110314;281;38517;-72
2023/12/13 06:58:25;;;;;;;62.60;31.50;;;;;;;4.54;99.17;99441.66;110329;281;38356;-72
2023/12/13 07:00:59;;;;;;;62.90;30.20;;;;;;;4.54;99.20;99438.17;110320;281;38151;-72
2023/12/13 07:03:33;;;;;;;59.50;30.90;;;;;;;4.53;98.54;99436.98;110085;282;154314;-72
2023/12/13 07:06:08;;;;;;;59.60;29.70;;;;;;;4.52;98.73;99437.20;110362;281;38780;-72
2023/12/13 07:08:42;;;;;;;65.90;32.50;;;;;;;4.55;98.86;99437.48;110192;281;153699;-72
2023/12/13 07:11:16;;;;;;;66.60;35.10;;;;;;;4.56;99.18;99433.81;110357;281;39342;-73
2023/12/13 07:13:51;;;;;;;84.70;42.60;;;;;;;4.58;99.10;99437.37;110311;281;39948;-73
2023/12/13 07:16:24;;;;;;;71.20;35.10;;;;;;;4.63;99.08;99436.89;110254;281;40780;-72
2023/12/13 07:18:58;;;;;;;60.00;31.70;;;;;;;4.66;99.04;99437.48;110371;281;40098;-72
2023/12/13 07:21:32;;;;;;;62.00;31.60;;;;;;;4.71;99.11;99435.48;110251;281;154045;-72
2023/12/13 07:24:07;;;;;;;64.20;33.60;;;;;;;4.73;99.09;99432.82;110360;281;39497;-72
2023/12/13 07:26:41;;;;;;;70.90;33.00;;;;;;;4.74;99.12;99428.65;109520;281;909666;-72
2023/12/13 07:29:15;;;;;;;61.80;30.50;;;;;;;4.79;99.26;99424.69;110347;281;38239;-72
2023/12/13 07:31:49;;;;;;;60.10;30.60;;;;;;;4.79;98.81;99426.58;110341;281;38517;-72
2023/12/13 07:34:23;;;;;;;57.10;30.60;;;;;;;4.82;98.87;99432.54;110234;281;38574;-72
2023/12/13 07:36:57;;;;;;;54.70;30.50;;;;;;;4.85;98.81;99429.52;110319;281;38482;-72
2023/12/13 07:39:33;;;;;;;61.30;31.70;;;;;;;4.84;98.46;99424.54;110198;281;154963;-72
2023/12/13 07:42:08;;;;;;;61.70;30.10;;;;;;;4.79;98.08;99430.04;110187;281;175110;-72
2023/12/13 07:44:43;;;;;;;54.80;28.60;;;;;;;4.75;98.04;99425.82;109530;281;910887;-73
2023/12/13 07:47:17;;;;;;;60.30;30.60;;;;;;;4.72;98.03;99428.88;110400;281;38303;-73
2023/12/13 07:49:51;;;;;;;54.80;30.50;;;;;;;4.69;98.01;99422.73;110386;281;39908;-72
2023/12/13 07:52:25;;;;;;;57.10;29.70;;;;;;;4.67;97.95;99416.73;110342;281;39331;-72
2023/12/13 07:55:01;;;;;;;63.00;32.90;;;;;;;4.63;98.04;99418.39;110344;281;38173;-72
2023/12/13 07:57:35;;;;;;;58.20;30.00;;;;;;;4.63;98.57;99423.77;110214;281;153879;-72
2023/12/13 08:00:12;;;;;;;57.70;30.60;;;;;;;4.64;98.49;99424.42;110337;281;39980;-72
2023/12/13 08:02:46;;;;;;;65.20;33.10;;;;;;;4.63;98.37;99426.70;110187;281;154088;-72
2023/12/13 08:08:44;;;;;;;62.00;32.20;;;;;;;4.69;98.77;99423.25;110151;279;155265;-72
2023/12/13 08:11:19;;;;;;;59.10;32.60;;;;;;;4.73;99.01;99427.27;110158;283;38477;-72
2023/12/13 08:13:53;;;;;;;57.00;29.20;;;;;;;4.76;99.14;99424.07;110055;284;175163;-72
2023/12/13 08:16:27;;;;;;;61.10;31.50;;;;;;;4.79;98.92;99422.09;110233;282;38674;-72
2023/12/13 08:19:01;;;;;;;60.50;30.10;;;;;;;4.81;98.85;99420.30;110409;282;38157;-72
2023/12/13 08:21:40;;;;;;;60.30;30.90;;;;;;;4.83;98.67;99420.08;110177;282;154152;-72
2023/12/13 08:27:42;;;;;;;54.10;27.00;;;;;;;4.78;98.58;99421.60;110354;280;38108;-72
2023/12/13 08:30:17;;;;;;;69.10;31.20;;;;;;;4.72;98.23;99421.61;110430;282;38225;-73
2023/12/13 08:32:51;;;;;;;62.60;31.40;;;;;;;4.71;98.57;99417.83;110174;283;154130;-73
2023/12/13 08:35:26;;;;;;;63.30;31.50;;;;;;;4.71;98.47;99415.08;110074;283;175067;-73
2023/12/13 08:38:01;;;;;;;65.20;32.00;;;;;;;4.70;98.32;99407.67;110211;284;39097;-72
2023/12/13 08:40:50;;;;;;;63.80;32.60;;;;;;;4.64;98.14;99405.08;110072;285;40209;-72
2023/12/13 08:46:50;;;;;;;76.70;36.90;;;;;;;4.72;99.10;99412.63;109546;281;911045;-72
2023/12/13 08:49:24;;;;;;;68.70;33.80;;;;;;;4.76;99.18;99415.09;110448;282;39591;-72
2023/12/13 08:51:58;;;;;;;69.80;32.90;;;;;;;4.80;99.20;99413.08;110164;283;154138;-72
2023/12/13 08:54:33;;;;;;;70.40;34.20;;;;;;;4.83;98.97;99412.63;110355;282;39465;-72
2023/12/13 08:57:07;;;;;;;66.60;32.90;;;;;;;4.88;98.97;99411.27;110282;282;154143;-72
2023/12/13 08:59:41;;;;;;;68.80;35.30;;;;;;;4.96;99.24;99415.34;110335;282;38775;-72
2023/12/13 09:02:16;;;;;;;71.20;36.20;;;;;;;5.02;99.10;99416.91;110303;282;154092;-72
2023/12/13 09:04:50;;;;;;;70.40;35.60;;;;;;;5.02;98.68;99420.52;110220;282;38646;-73
2023/12/13 09:07:25;;;;;;;73.40;36.10;;;;;;;5.01;98.39;99421.27;110380;282;38163;-72
2023/12/13 09:09:59;;;;;;;74.10;36.80;;;;;;;5.04;98.60;99417.54;110151;282;155259;-72
2023/12/13 09:12:33;;;;;;;73.30;36.20;;;;;;;5.06;98.26;99418.66;110403;282;38472;-72
2023/12/13 09:15:06;;;;;;;74.20;37.20;;;;;;;5.02;97.78;99415.54;110257;282;153981;-72
2023/12/13 09:21:00;;;;;;;70.00;34.30;;;;;;;4.97;98.00;99406.35;110206;279;153961;-71
2023/12/13 09:23:39;;;;;;;73.90;35.80;;;;;;;4.92;97.70;99400.61;110295;282;38300;-72
2023/12/13 09:26:13;;;;;;;72.50;37.90;;;;;;;4.94;98.24;99398.30;110270;282;155123;-72
2023/12/13 09:28:47;;;;;;;69.80;35.20;;;;;;;5.00;98.41;99395.70;110282;282;39829;-72
2023/12/13 09:31:21;;;;;;;71.90;37.70;;;;;;;5.03;98.05;99392.14;110384;282;38722;-72
2023/12/13 09:33:57;;;;;;;73.70;37.40;;;;;;;5.04;98.14;99392.80;110298;282;153631;-72
2023/12/13 09:36:30;;;;;;;76.60;37.60;;;;;;;5.06;98.29;99392.20;110350;281;38730;-73
2023/12/13 09:39:04;;;;;;;71.80;35.70;;;;;;;5.10;98.28;99389.02;110260;281;155072;-72
2023/12/13 09:41:53;;;;;;;73.50;36.30;;;;;;;5.09;97.72;99382.46;110430;281;39388;-72
2023/12/13 09:44:28;;;;;;;69.70;36.80;;;;;;;5.07;97.59;99382.00;110276;280;38414;-72
2023/12/13 09:47:03;;;;;;;79.00;39.90;;;;;;;5.04;97.36;99379.68;110215;283;41212;-72
2023/12/13 09:49:37;;;;;;;78.80;37.80;;;;;;;5.02;97.60;99382.86;110166;280;38259;-72
2023/12/13 09:52:12;;;;;;;75.50;38.60;;;;;;;5.05;97.87;99380.34;110072;283;153961;-72
2023/12/13 09:54:47;;;;;;;78.00;40.40;;;;;;;5.07;97.86;99382.85;110417;282;38299;-72
2023/12/13 09:57:21;;;;;;;73.60;37.80;;;;;;;5.06;97.42;99381.18;110060;282;155338;-72
2023/12/13 09:59:56;;;;;;;78.10;40.80;;;;;;;5.06;97.59;99380.80;110395;281;39212;-73
2023/12/13 10:02:30;;;;;;;74.50;40.30;;;;;;;5.06;97.77;99377.86;110276;281;153911;-73
2023/12/13 10:05:05;;;;;;;73.90;38.40;;;;;;;5.08;97.98;99369.17;110328;281;38236;-72
2023/12/13 10:07:39;;;;;;;71.30;38.90;;;;;;;5.06;97.26;99372.86;110334;281;39621;-72
2023/12/13 10:10:14;;;;;;;75.40;39.80;;;;;;;5.06;97.37;99374.27;110185;281;156345;-72
2023/12/13 10:12:53;;;;;;;74.30;39.00;;;;;;;5.08;97.72;99373.50;110312;281;39348;-72
2023/12/13 10:15:31;;;;;;;72.70;40.80;;;;;;;5.16;98.19;99372.90;110317;282;153728;-72
2023/12/13 10:18:06;;;;;;;71.60;39.50;;;;;;;5.14;97.02;99368.63;110372;281;38727;-72
2023/12/13 10:20:52;;;;;;;71.40;38.00;;;;;;;5.06;96.77;99369.57;110347;281;38468;-72
2023/12/13 10:23:27;;;;;;;71.40;40.70;;;;;;;4.98;96.54;99369.14;110143;277;39018;-73
2023/12/13 10:26:01;;;;;;;72.50;39.60;;;;;;;4.99;97.00;99372.08;110166;284;38950;-72
2023/12/13 10:28:37;;;;;;;70.50;39.70;;;;;;;5.03;97.33;99368.65;110032;284;153927;-72
2023/12/13 10:31:11;;;;;;;73.80;41.90;;;;;;;5.08;97.25;99367.97;110136;284;40133;-72
2023/12/13 10:33:45;;;;;;;73.90;40.60;;;;;;;5.08;97.15;99374.19;110138;282;38439;-72
2023/12/13 10:36:19;;;;;;;78.20;42.10;;;;;;;5.03;96.36;99372.09;110363;282;40819;-72
2023/12/13 10:38:53;;;;;;;73.10;40.40;;;;;;;5.02;96.50;99369.90;110062;283;154735;-72
2023/12/13 10:41:31;;;;;;;76.00;43.00;;;;;;;5.02;96.53;99371.96;110183;283;38245;-72
2023/12/13 10:44:07;;;;;;;90.60;51.00;;;;;;;5.04;96.68;99370.35;110085;283;175032;-72
2023/12/13 10:46:57;;;;;;;83.40;46.50;;;;;;;4.99;96.04;99374.65;110049;282;153984;-72
2023/12/13 10:49:32;;;;;;;74.70;42.10;;;;;;;4.99;96.62;99370.17;110098;283;39706;-72
2023/12/13 10:52:07;;;;;;;77.60;42.30;;;;;;;5.01;96.23;99371.29;110065;283;154468;-73
2023/12/13 10:54:41;;;;;;;85.60;48.70;;;;;;;4.98;95.90;99366.06;110171;283;40073;-73
2023/12/13 10:57:15;;;;;;;88.20;49.80;;;;;;;4.95;95.83;99365.44;110119;279;153719;-72
2023/12/13 10:59:49;;;;;;;89.30;47.50;;;;;;;4.90;95.92;99359.37;110203;282;41429;-73
2023/12/13 11:02:23;;;;;;;116.00;58.70;;;;;;;4.92;96.16;99355.17;110429;282;38831;-72
2023/12/13 11:04:57;;;;;;;103.30;52.90;;;;;;;4.95;96.39;99355.07;110263;282;38410;-72
2023/12/13 11:07:31;;;;;;;88.30;48.20;;;;;;;5.01;96.31;99349.73;110322;282;39070;-72
2023/12/13 11:10:06;;;;;;;107.10;56.20;;;;;;;5.04;96.48;99347.00;110088;282;154121;-72
2023/12/13 11:16:04;;;;;;;92.40;48.80;;;;;;;5.14;96.59;99347.35;110303;280;38132;-71
2023/12/13 11:18:41;;;;;;;93.00;49.10;;;;;;;5.17;96.07;99348.33;110390;282;38463;-71
2023/12/13 11:21:24;;;;;;;108.70;58.50;;;;;;;5.19;96.03;99347.58;110093;283;156000;-71
2023/12/13 11:24:00;;;;;;;87.40;50.50;;;;;;;5.20;95.77;99342.36;110314;282;39632;-71
2023/12/13 11:26:34;;;;;;;108.60;59.50;;;;;;;5.19;95.85;99337.20;110398;282;38831;-72
2023/12/13 11:29:18;;;;;;;122.00;59.30;;;;;;;5.19;95.47;99332.67;110204;282;40342;-72
2023/12/13 11:41:47;;;;;;;96.80;50.10;;;;;;;5.14;95.02;99314.55;110360;282;38560;-72
2023/12/13 11:44:21;;;;;;;84.30;48.30;;;;;;;5.13;94.77;99314.06;110204;282;39654;-73
2023/12/13 11:46:59;;;;;;;79.40;46.20;;;;;;;5.09;94.50;99305.19;110080;282;154398;-72
2023/12/13 11:49:34;;;;;;;77.10;45.00;;;;;;;5.10;94.57;99305.66;110410;282;39813;-72
2023/12/13 11:52:08;;;;;;;75.00;44.60;;;;;;;5.12;94.45;99308.20;110156;282;153588;-72
2023/12/13 11:54:42;;;;;;;86.50;48.50;;;;;;;5.06;94.07;99317.02;110084;282;175081;-72
2023/12/13 11:57:18;;;;;;;79.60;44.90;;;;;;;5.04;93.93;99311.42;110224;282;154559;-72
2023/12/13 11:59:55;;;;;;;97.30;53.70;;;;;;;5.04;93.96;99305.02;110228;282;38581;-72
2023/12/13 12:02:29;;;;;;;70.60;42.70;;;;;;;5.07;94.17;99304.40;110407;282;39515;-77
2023/12/13 12:05:06;;;;;;;79.80;47.20;;;;;;;5.08;93.60;99305.73;110038;282;154297;-72
2023/12/13 12:07:40;;;;;;;103.70;51.50;;;;;;;5.04;93.16;99296.89;110410;282;39489;-72
2023/12/13 12:10:14;;;;;;;74.10;41.80;;;;;;;4.99;93.17;99289.95;110140;282;156140;-73
2023/12/13 12:12:51;;;;;;;93.60;49.90;;;;;;;4.94;92.46;99288.73;110314;282;38492;-72
2023/12/13 12:15:25;;;;;;;82.10;45.80;;;;;;;4.87;92.53;99289.13;110002;283;154104;-72
2023/12/13 12:21:41;;;;;;;98.10;49.60;;;;;;;4.76;93.11;99283.61;110154;282;153450;-72
2023/12/13 12:24:15;;;;;;;71.80;40.20;;;;;;;4.80;93.42;99279.36;110178;283;39909;-72
2023/12/13 12:26:49;;;;;;;88.70;45.50;;;;;;;4.81;93.16;99281.36;110170;283;38433;-72
2023/12/13 12:29:23;;;;;;;73.90;42.00;;;;;;;4.80;92.80;99282.61;110135;284;38265;-72
2023/12/13 12:31:57;;;;;;;68.70;40.30;;;;;;;4.78;92.64;99279.95;110195;284;38482;-72
2023/12/13 12:34:31;;;;;;;76.60;41.40;;;;;;;4.74;92.26;99274.02;110038;283;153910;-72
2023/12/13 12:37:05;;;;;;;72.70;43.20;;;;;;;4.66;92.14;99278.04;110206;283;38418;-72
2023/12/13 12:39:39;;;;;;;73.00;41.50;;;;;;;4.63;92.67;99279.34;110035;283;154266;-72
2023/12/13 12:42:13;;;;;;;71.40;40.80;;;;;;;4.64;92.51;99279.66;110223;283;38193;-72
2023/12/13 12:44:47;;;;;;;69.30;39.80;;;;;;;4.61;92.46;99280.80;110207;283;39417;-72
2023/12/13 12:47:21;;;;;;;77.30;41.50;;;;;;;4.58;92.68;99284.69;110023;283;39326;-72
2023/12/13 12:49:55;;;;;;;67.10;36.30;;;;;;;4.58;92.40;99289.01;110196;283;39436;-72
2023/12/13 12:52:29;;;;;;;65.60;36.90;;;;;;;4.56;92.28;99283.54;110032;283;155126;-72